createdAt,value
2023-06-26T00:00:33.921Z,23.31
2023-06-26T00:01:35.787Z,23.29
2023-06-26T00:02:37.551Z,23.28
2023-06-26T00:03:41.767Z,23.27
2023-06-26T00:04:44.731Z,23.23
2023-06-26T00:05:46.470Z,23.26
2023-06-26T00:06:48.249Z,23.26
2023-06-26T00:07:50.096Z,23.26
2023-06-26T00:08:52.264Z,23.26
2023-06-26T00:09:54.019Z,23.25
2023-06-26T00:10:55.963Z,23.23
2023-06-26T00:11:57.715Z,23.27
2023-06-26T00:12:59.500Z,23.20
2023-06-26T00:14:02.489Z,23.25
2023-06-26T00:15:04.560Z,23.27
2023-06-26T00:16:06.382Z,23.26
2023-06-26T00:17:08.206Z,23.27
2023-06-26T00:18:09.942Z,23.25
2023-06-26T00:19:11.685Z,23.29
2023-06-26T00:20:13.524Z,23.30
2023-06-26T00:21:15.403Z,23.28
2023-06-26T00:22:17.210Z,23.29
2023-06-26T00:23:19.628Z,23.30
2023-06-26T00:24:21.428Z,23.32
2023-06-26T00:25:23.203Z,23.29
2023-06-26T00:26:25.600Z,23.31
2023-06-26T00:27:27.410Z,23.31
2023-06-26T00:28:29.147Z,23.31
2023-06-26T00:29:30.892Z,23.35
2023-06-26T00:30:32.697Z,23.32
2023-06-26T00:31:36.279Z,23.21
2023-06-26T00:32:38.101Z,23.34
2023-06-26T00:33:40.769Z,23.33
2023-06-26T00:34:42.556Z,23.34
2023-06-26T00:35:44.282Z,23.33
2023-06-26T00:36:46.264Z,23.30
2023-06-26T00:37:48.100Z,23.32
2023-06-26T00:38:51.015Z,23.34
2023-06-26T00:39:52.804Z,23.28
2023-06-26T00:40:56.721Z,23.32
2023-06-26T00:41:58.542Z,23.30
2023-06-26T00:43:00.279Z,23.31
2023-06-26T00:44:02.053Z,23.30
2023-06-26T00:45:04.702Z,23.30
2023-06-26T00:46:09.541Z,23.30
2023-06-26T00:47:16.946Z,23.28
2023-06-26T00:48:19.542Z,23.18
2023-06-26T00:49:21.423Z,23.23
2023-06-26T00:50:23.994Z,23.27
2023-06-26T00:51:26.667Z,23.06
2023-06-26T00:52:28.490Z,23.21
2023-06-26T00:53:31.298Z,23.20
2023-06-26T00:54:33.624Z,23.21
2023-06-26T00:55:35.458Z,23.18
2023-06-26T00:56:38.190Z,23.18
2023-06-26T00:57:40.209Z,23.18
2023-06-26T00:58:41.983Z,23.15
2023-06-26T00:59:43.777Z,23.18
2023-06-26T01:00:46.863Z,23.16
2023-06-26T01:01:49.559Z,23.14
2023-06-26T01:02:51.566Z,23.12
2023-06-26T01:03:54.623Z,23.12
2023-06-26T01:04:56.455Z,23.13
2023-06-26T01:06:00.417Z,23.07
2023-06-26T01:07:04.647Z,23.07
2023-06-26T01:08:06.561Z,23.06
2023-06-26T01:09:08.402Z,23.10
2023-06-26T01:10:10.443Z,23.07
2023-06-26T01:11:13.472Z,23.07
2023-06-26T01:12:15.879Z,23.08
2023-06-26T01:13:18.491Z,23.09
2023-06-26T01:14:20.420Z,23.07
2023-06-26T01:15:22.237Z,23.03
2023-06-26T01:16:25.831Z,23.06
2023-06-26T01:17:33.683Z,23.06
2023-06-26T01:18:38.767Z,23.03
2023-06-26T01:19:41.574Z,23.01
2023-06-26T01:20:44.176Z,22.99
2023-06-26T01:21:47.844Z,23.00
2023-06-26T01:23:13.455Z,23.01
2023-06-26T01:24:22.373Z,23.01
2023-06-26T01:25:40.248Z,23.01
2023-06-26T01:26:45.439Z,22.98
2023-06-26T01:27:49.794Z,22.95
2023-06-26T01:28:54.193Z,22.96
2023-06-26T01:29:56.676Z,22.93
2023-06-26T01:31:00.130Z,22.86
2023-06-26T01:32:02.329Z,22.91
2023-06-26T01:33:05.001Z,22.88
2023-06-26T01:34:07.464Z,22.83
2023-06-26T01:35:11.164Z,22.83
2023-06-26T01:36:13.517Z,22.88
2023-06-26T01:37:15.272Z,22.80
2023-06-26T01:38:19.775Z,22.83
2023-06-26T01:39:21.693Z,22.89
2023-06-26T01:40:23.449Z,22.85
2023-06-26T01:41:25.536Z,22.85
2023-06-26T01:42:28.117Z,22.89
2023-06-26T01:44:15.157Z,22.87
2023-06-26T01:45:28.323Z,22.88
2023-06-26T01:47:02.973Z,22.86
2023-06-26T01:48:09.349Z,22.85
2023-06-26T01:49:22.910Z,22.84
2023-06-26T01:50:30.164Z,22.84
2023-06-26T01:51:36.875Z,22.77
2023-06-26T01:52:54.974Z,22.79
2023-06-26T01:53:59.767Z,22.79
2023-06-26T01:55:19.856Z,22.75
2023-06-26T01:56:24.822Z,22.72
2023-06-26T01:57:29.493Z,22.73
2023-06-26T01:58:33.272Z,22.72
2023-06-26T01:59:35.686Z,22.71
2023-06-26T02:00:38.952Z,22.72
2023-06-26T02:01:41.375Z,22.70
2023-06-26T02:02:44.055Z,22.72
2023-06-26T02:03:46.022Z,22.68
2023-06-26T02:04:49.459Z,22.67
2023-06-26T02:05:52.397Z,22.69
2023-06-26T02:06:54.249Z,22.67
2023-06-26T02:07:56.065Z,22.67
2023-06-26T02:08:57.860Z,22.69
2023-06-26T02:09:59.638Z,22.68
2023-06-26T02:11:01.456Z,22.68
2023-06-26T02:12:03.238Z,22.63
2023-06-26T02:13:05.049Z,22.62
2023-06-26T02:14:06.860Z,22.63
2023-06-26T02:15:09.532Z,22.63
2023-06-26T02:16:11.273Z,22.60
2023-06-26T02:17:13.081Z,22.58
2023-06-26T02:18:14.922Z,22.54
2023-06-26T02:19:22.734Z,22.56
2023-06-26T02:20:24.575Z,22.55
2023-06-26T02:21:26.360Z,22.57
2023-06-26T02:22:29.806Z,22.51
2023-06-26T02:23:31.804Z,22.54
2023-06-26T02:24:33.692Z,22.55
2023-06-26T02:25:35.438Z,22.54
2023-06-26T02:26:37.293Z,22.52
2023-06-26T02:27:39.529Z,22.36
2023-06-26T02:28:41.397Z,22.49
2023-06-26T02:29:43.302Z,22.49
2023-06-26T02:30:45.203Z,22.51
2023-06-26T02:31:47.034Z,22.49
2023-06-26T02:32:48.902Z,22.52
2023-06-26T02:33:50.852Z,22.52
2023-06-26T02:34:55.194Z,22.49
2023-06-26T02:35:57.016Z,22.48
2023-06-26T02:36:59.745Z,22.21
2023-06-26T02:38:01.495Z,22.44
2023-06-26T02:39:03.433Z,22.48
2023-06-26T02:40:06.263Z,22.50
2023-06-26T02:41:08.040Z,22.53
2023-06-26T02:42:09.782Z,22.51
2023-06-26T02:43:11.541Z,22.15
2023-06-26T02:44:13.616Z,22.49
2023-06-26T02:45:15.534Z,22.52
2023-06-26T02:46:17.394Z,22.51
2023-06-26T02:47:19.251Z,22.42
2023-06-26T02:48:21.052Z,22.55
2023-06-26T02:49:23.674Z,22.54
2023-06-26T02:50:25.668Z,22.54
2023-06-26T02:51:27.482Z,22.54
2023-06-26T02:52:29.900Z,22.55
2023-06-26T02:53:32.581Z,22.55
2023-06-26T02:54:34.359Z,22.56
2023-06-26T02:55:36.177Z,22.52
2023-06-26T02:56:44.878Z,22.54
2023-06-26T02:57:49.351Z,22.52
2023-06-26T02:58:51.154Z,22.52
2023-06-26T02:59:52.895Z,22.56
2023-06-26T03:00:54.861Z,22.54
2023-06-26T03:01:56.717Z,22.54
2023-06-26T03:02:58.584Z,22.54
2023-06-26T03:04:01.861Z,22.55
2023-06-26T03:05:04.201Z,22.55
2023-06-26T03:06:05.950Z,22.56
2023-06-26T03:07:07.775Z,22.56
2023-06-26T03:08:09.531Z,22.56
2023-06-26T03:09:11.288Z,22.55
2023-06-26T03:10:13.044Z,22.55
2023-06-26T03:11:14.814Z,22.56
2023-06-26T03:12:16.598Z,22.57
2023-06-26T03:13:19.176Z,22.55
2023-06-26T03:14:20.895Z,22.54
2023-06-26T03:15:22.631Z,22.51
2023-06-26T03:16:24.477Z,22.52
2023-06-26T03:17:26.220Z,22.50
2023-06-26T03:18:28.564Z,22.50
2023-06-26T03:19:30.938Z,22.48
2023-06-26T03:20:32.737Z,22.48
2023-06-26T03:21:34.618Z,22.48
2023-06-26T03:22:36.417Z,22.49
2023-06-26T03:23:38.164Z,22.48
2023-06-26T03:24:39.923Z,22.55
2023-06-26T03:25:41.703Z,22.55
2023-06-26T03:26:43.483Z,22.49
2023-06-26T03:27:45.429Z,22.56
2023-06-26T03:28:47.158Z,22.53
2023-06-26T03:29:48.923Z,22.57
2023-06-26T03:30:50.721Z,22.56
2023-06-26T03:31:52.529Z,22.60
2023-06-26T03:32:54.707Z,22.62
2023-06-26T03:33:56.477Z,22.62
2023-06-26T03:34:58.252Z,22.58
2023-06-26T03:36:00.408Z,22.57
2023-06-26T03:37:03.221Z,22.62
2023-06-26T03:38:06.442Z,22.65
2023-06-26T03:39:08.198Z,22.66
2023-06-26T03:40:10.795Z,22.66
2023-06-26T03:41:12.587Z,22.70
2023-06-26T03:42:14.385Z,22.70
2023-06-26T03:43:16.196Z,22.69
2023-06-26T03:44:17.963Z,22.67
2023-06-26T03:45:20.591Z,22.63
2023-06-26T03:46:23.109Z,22.75
2023-06-26T03:47:24.879Z,22.78
2023-06-26T03:48:26.774Z,22.78
2023-06-26T03:49:28.540Z,22.82
2023-06-26T03:50:30.258Z,22.88
2023-06-26T03:51:32.067Z,22.89
2023-06-26T03:52:33.839Z,22.91
2023-06-26T03:53:35.837Z,22.93
2023-06-26T03:54:37.586Z,22.90
2023-06-26T03:55:39.929Z,22.91
2023-06-26T03:56:41.936Z,23.00
2023-06-26T03:57:43.664Z,23.03
2023-06-26T03:58:45.904Z,23.12
2023-06-26T03:59:47.986Z,23.14
2023-06-26T04:00:49.722Z,23.22
2023-06-26T04:01:53.504Z,23.25
2023-06-26T04:02:55.855Z,23.26
2023-06-26T04:03:57.712Z,23.34
2023-06-26T04:04:59.488Z,23.42
2023-06-26T04:06:01.251Z,23.42
2023-06-26T04:07:03.578Z,23.44
2023-06-26T04:08:05.445Z,23.49
2023-06-26T04:09:07.309Z,23.55
2023-06-26T04:10:09.998Z,23.57
2023-06-26T04:11:11.809Z,23.63
2023-06-26T04:12:13.598Z,23.63
2023-06-26T04:13:16.022Z,23.66
2023-06-26T04:14:17.909Z,23.67
2023-06-26T04:15:19.768Z,23.66
2023-06-26T04:16:26.179Z,23.73
2023-06-26T04:17:28.064Z,23.78
2023-06-26T04:18:29.798Z,23.81
2023-06-26T04:19:31.682Z,23.83
2023-06-26T04:20:34.405Z,23.83
2023-06-26T04:21:36.168Z,23.84
2023-06-26T04:22:37.975Z,23.73
2023-06-26T04:23:40.961Z,23.78
2023-06-26T04:24:42.809Z,23.75
2023-06-26T04:25:44.546Z,23.78
2023-06-26T04:26:47.387Z,23.80
2023-06-26T04:27:49.133Z,23.78
2023-06-26T04:28:51.012Z,23.76
2023-06-26T04:29:52.775Z,23.65
2023-06-26T04:30:54.891Z,23.76
2023-06-26T04:31:59.838Z,23.73
2023-06-26T04:33:02.453Z,23.73
2023-06-26T04:34:04.255Z,23.77
2023-06-26T04:35:06.325Z,23.81
2023-06-26T04:36:08.230Z,23.86
2023-06-26T04:37:10.682Z,23.87
2023-06-26T04:38:12.721Z,23.94
2023-06-26T04:39:16.138Z,23.95
2023-06-26T04:40:17.873Z,23.93
2023-06-26T04:41:19.617Z,23.89
2023-06-26T04:42:22.994Z,23.97
2023-06-26T04:43:24.833Z,23.97
2023-06-26T04:44:26.728Z,24.08
2023-06-26T04:45:28.486Z,24.15
2023-06-26T04:46:30.359Z,24.20
2023-06-26T04:47:34.853Z,24.26
2023-06-26T04:48:36.683Z,24.33
2023-06-26T04:49:39.550Z,24.39
2023-06-26T04:50:41.776Z,24.43
2023-06-26T04:51:43.717Z,24.45
2023-06-26T04:52:45.562Z,24.63
2023-06-26T04:53:47.280Z,24.85
2023-06-26T04:54:49.063Z,25.09
2023-06-26T04:55:52.156Z,25.23
2023-06-26T04:56:54.011Z,25.39
2023-06-26T04:57:55.848Z,25.50
2023-06-26T04:58:57.586Z,25.61
2023-06-26T04:59:59.312Z,25.75
2023-06-26T05:01:02.221Z,25.85
2023-06-26T05:02:06.264Z,25.99
2023-06-26T05:03:08.280Z,26.12
2023-06-26T05:04:10.077Z,26.21
2023-06-26T05:05:12.493Z,26.34
2023-06-26T05:06:14.356Z,26.34
2023-06-26T05:07:16.150Z,26.46
2023-06-26T05:08:28.071Z,26.53
2023-06-26T05:09:29.872Z,26.56
2023-06-26T05:10:31.719Z,26.68
2023-06-26T05:11:33.537Z,26.70
2023-06-26T05:12:35.365Z,26.77
2023-06-26T05:13:37.132Z,26.76
2023-06-26T05:14:38.861Z,26.78
2023-06-26T05:15:40.619Z,26.73
2023-06-26T05:16:42.426Z,26.71
2023-06-26T05:17:44.271Z,26.68
2023-06-26T05:18:46.073Z,26.66
2023-06-26T05:19:47.865Z,26.68
2023-06-26T05:20:50.057Z,26.71
2023-06-26T05:21:53.189Z,26.72
2023-06-26T05:22:55.563Z,26.85
2023-06-26T05:23:59.056Z,26.98
2023-06-26T05:25:05.644Z,27.10
2023-06-26T05:26:07.916Z,27.20
2023-06-26T05:27:10.249Z,27.29
2023-06-26T05:28:13.521Z,27.35
2023-06-26T05:29:15.749Z,27.39
2023-06-26T05:30:18.117Z,27.54
2023-06-26T05:31:20.188Z,27.63
2023-06-26T05:32:22.370Z,27.80
2023-06-26T05:33:25.767Z,27.95
2023-06-26T05:34:33.206Z,28.09
2023-06-26T05:35:35.908Z,28.28
2023-06-26T05:36:38.507Z,28.34
2023-06-26T05:37:42.656Z,28.43
2023-06-26T05:38:44.915Z,28.58
2023-06-26T05:39:46.912Z,28.25
2023-06-26T05:40:49.097Z,28.16
2023-06-26T05:41:51.161Z,28.19
2023-06-26T05:42:53.198Z,28.26
2023-06-26T05:43:55.642Z,28.37
2023-06-26T05:44:57.535Z,28.25
2023-06-26T05:45:59.505Z,28.26
2023-06-26T05:47:01.348Z,28.20
2023-06-26T05:48:03.397Z,28.19
2023-06-26T05:49:05.252Z,28.23
2023-06-26T05:50:09.149Z,28.31
2023-06-26T05:51:11.152Z,28.30
2023-06-26T05:52:14.008Z,28.19
2023-06-26T05:53:16.058Z,28.14
2023-06-26T05:54:18.047Z,28.20
2023-06-26T05:55:20.215Z,28.29
2023-06-26T05:56:22.260Z,28.45
2023-06-26T05:57:24.298Z,28.43
2023-06-26T05:58:30.916Z,28.37
2023-06-26T05:59:33.545Z,28.40
2023-06-26T06:00:35.775Z,28.51
2023-06-26T06:01:37.877Z,28.67
2023-06-26T06:02:40.984Z,28.81
2023-06-26T06:03:43.010Z,28.80
2023-06-26T06:04:44.818Z,28.92
2023-06-26T06:05:46.579Z,28.92
2023-06-26T06:06:48.522Z,28.91
2023-06-26T06:07:51.275Z,29.00
2023-06-26T06:08:52.993Z,29.19
2023-06-26T06:09:54.787Z,29.19
2023-06-26T06:10:56.643Z,29.24
2023-06-26T06:11:58.421Z,29.29
2023-06-26T06:13:00.152Z,29.39
2023-06-26T06:14:01.893Z,29.42
2023-06-26T06:15:03.845Z,29.45
2023-06-26T06:16:05.865Z,29.38
2023-06-26T06:17:07.602Z,29.33
2023-06-26T06:18:09.388Z,29.21
2023-06-26T06:19:14.097Z,29.26
2023-06-26T06:20:15.865Z,29.26
2023-06-26T06:21:17.683Z,29.23
2023-06-26T06:22:19.963Z,29.10
2023-06-26T06:23:21.690Z,28.97
2023-06-26T06:24:23.449Z,28.88
2023-06-26T06:25:25.201Z,28.84
2023-06-26T06:26:26.916Z,28.73
2023-06-26T06:27:29.183Z,28.60
2023-06-26T06:28:30.975Z,28.53
2023-06-26T06:29:32.802Z,28.34
2023-06-26T06:30:44.966Z,28.31
2023-06-26T06:31:48.113Z,28.13
2023-06-26T06:32:52.851Z,28.16
2023-06-26T06:33:54.867Z,28.16
2023-06-26T06:34:56.597Z,28.10
2023-06-26T06:35:58.457Z,27.95
2023-06-26T06:37:00.474Z,27.93
2023-06-26T06:38:02.253Z,27.97
2023-06-26T06:39:04.616Z,27.99
2023-06-26T06:40:07.989Z,28.00
2023-06-26T06:41:09.746Z,28.02
2023-06-26T06:42:11.476Z,28.00
2023-06-26T06:43:13.249Z,27.98
2023-06-26T06:44:14.977Z,28.19
2023-06-26T06:45:16.716Z,28.42
2023-06-26T06:46:18.516Z,28.66
2023-06-26T06:47:20.321Z,28.90
2023-06-26T06:48:22.058Z,29.04
2023-06-26T06:49:23.808Z,29.13
2023-06-26T06:50:25.574Z,29.33
2023-06-26T06:51:27.436Z,29.52
2023-06-26T06:52:29.198Z,29.65
2023-06-26T06:53:32.855Z,29.72
2023-06-26T06:54:52.603Z,29.54
2023-06-26T06:55:54.360Z,29.45
2023-06-26T06:56:56.153Z,29.32
2023-06-26T06:57:57.940Z,29.14
2023-06-26T06:58:59.764Z,29.01
2023-06-26T07:00:01.484Z,28.90
2023-06-26T07:01:04.297Z,28.93
2023-06-26T07:02:06.124Z,28.91
2023-06-26T07:03:11.738Z,28.84
2023-06-26T07:04:13.569Z,28.78
2023-06-26T07:05:15.369Z,28.70
2023-06-26T07:06:17.105Z,28.53
2023-06-26T07:07:20.460Z,28.40
2023-06-26T07:08:22.278Z,28.30
2023-06-26T07:09:24.025Z,28.30
2023-06-26T07:10:25.867Z,28.29
2023-06-26T07:11:27.652Z,28.26
2023-06-26T07:12:29.908Z,28.28
2023-06-26T07:13:31.698Z,28.23
2023-06-26T07:14:33.531Z,28.24
2023-06-26T07:15:35.424Z,28.25
2023-06-26T07:16:37.196Z,28.33
2023-06-26T07:17:40.063Z,28.35
2023-06-26T07:18:42.076Z,28.42
2023-06-26T07:19:43.859Z,28.47
2023-06-26T07:20:45.619Z,28.54
2023-06-26T07:21:48.307Z,28.53
2023-06-26T07:22:50.074Z,28.55
2023-06-26T07:23:51.866Z,28.65
2023-06-26T07:24:53.913Z,28.81
2023-06-26T07:25:55.691Z,28.96
2023-06-26T07:26:57.423Z,29.23
2023-06-26T07:27:59.256Z,29.40
2023-06-26T07:29:00.986Z,29.59
2023-06-26T07:30:03.028Z,29.61
2023-06-26T07:31:04.786Z,29.56
2023-06-26T07:32:06.779Z,29.54
2023-06-26T07:33:08.532Z,29.74
2023-06-26T07:34:10.273Z,29.91
2023-06-26T07:35:12.085Z,30.04
2023-06-26T07:36:13.875Z,30.07
2023-06-26T07:37:15.684Z,30.17
2023-06-26T07:38:17.432Z,30.10
2023-06-26T07:39:23.443Z,29.96
2023-06-26T07:40:26.643Z,29.92
2023-06-26T07:41:30.522Z,29.90
2023-06-26T07:42:32.307Z,29.90
2023-06-26T07:43:34.128Z,30.11
2023-06-26T07:44:35.879Z,30.16
2023-06-26T07:45:37.631Z,30.39
2023-06-26T07:46:40.482Z,30.51
2023-06-26T07:47:42.467Z,30.54
2023-06-26T07:48:44.282Z,30.56
2023-06-26T07:49:46.178Z,30.50
2023-06-26T07:50:47.943Z,30.37
2023-06-26T07:51:49.729Z,30.28
2023-06-26T07:52:53.267Z,30.18
2023-06-26T07:53:55.024Z,29.92
2023-06-26T07:54:57.272Z,29.85
2023-06-26T07:55:59.090Z,29.67
2023-06-26T07:57:03.215Z,29.70
2023-06-26T07:58:05.047Z,29.61
2023-06-26T07:59:06.814Z,29.55
2023-06-26T08:00:09.177Z,29.48
2023-06-26T08:01:11.007Z,29.62
2023-06-26T08:02:12.763Z,29.77
2023-06-26T08:03:25.392Z,29.98
2023-06-26T08:04:36.037Z,30.26
2023-06-26T08:05:38.017Z,30.53
2023-06-26T08:06:41.472Z,30.79
2023-06-26T08:07:43.285Z,31.15
2023-06-26T08:08:45.047Z,31.50
2023-06-26T08:09:46.918Z,31.60
2023-06-26T08:10:48.641Z,31.71
2023-06-26T08:11:50.828Z,31.80
2023-06-26T08:12:53.896Z,31.81
2023-06-26T08:13:55.846Z,31.92
2023-06-26T08:14:57.624Z,31.95
2023-06-26T08:15:59.399Z,31.86
2023-06-26T08:17:01.205Z,31.69
2023-06-26T08:18:03.010Z,31.50
2023-06-26T08:19:04.762Z,31.43
2023-06-26T08:20:09.301Z,31.39
2023-06-26T08:21:11.890Z,31.32
2023-06-26T08:22:14.122Z,31.14
2023-06-26T08:23:15.881Z,31.04
2023-06-26T08:24:19.590Z,30.92
2023-06-26T08:25:21.891Z,30.88
2023-06-26T08:26:23.676Z,30.83
2023-06-26T08:27:26.739Z,30.89
2023-06-26T08:28:28.506Z,30.82
2023-06-26T08:29:30.403Z,30.52
2023-06-26T08:30:33.584Z,30.39
2023-06-26T08:31:35.984Z,30.28
2023-06-26T08:32:38.000Z,30.32
2023-06-26T08:33:39.813Z,30.33
2023-06-26T08:34:41.525Z,30.19
2023-06-26T08:35:44.061Z,30.14
2023-06-26T08:36:46.157Z,30.11
2023-06-26T08:37:48.080Z,30.07
2023-06-26T08:38:49.823Z,30.06
2023-06-26T08:39:51.792Z,30.04
2023-06-26T08:40:53.575Z,30.08
2023-06-26T08:41:55.546Z,30.11
2023-06-26T08:42:57.519Z,30.10
2023-06-26T08:43:59.396Z,30.10
2023-06-26T08:45:02.460Z,30.04
2023-06-26T08:46:05.040Z,29.94
2023-06-26T08:47:06.929Z,29.90
2023-06-26T08:48:09.719Z,29.86
2023-06-26T08:49:43.831Z,29.85
2023-06-26T08:50:48.110Z,29.85
2023-06-26T08:51:57.533Z,29.91
2023-06-26T08:53:03.301Z,29.90
2023-06-26T08:54:10.259Z,29.94
2023-06-26T08:55:13.959Z,29.98
2023-06-26T08:56:18.968Z,30.00
2023-06-26T08:57:22.374Z,30.00
2023-06-26T08:58:24.453Z,29.98
2023-06-26T08:59:26.487Z,29.90
2023-06-26T09:00:28.654Z,29.71
2023-06-26T09:01:31.779Z,29.66
2023-06-26T09:02:33.961Z,29.68
2023-06-26T09:03:36.806Z,29.69
2023-06-26T09:04:39.902Z,29.71
2023-06-26T09:05:41.680Z,29.74
2023-06-26T09:06:43.626Z,29.74
2023-06-26T09:07:46.312Z,29.73
2023-06-26T09:08:48.318Z,29.73
2023-06-26T09:09:50.190Z,29.64
2023-06-26T09:10:53.114Z,29.67
2023-06-26T09:11:56.484Z,29.66
2023-06-26T09:12:59.243Z,29.72
2023-06-26T09:14:01.581Z,29.72
2023-06-26T09:15:04.627Z,29.74
2023-06-26T09:16:09.864Z,29.73
2023-06-26T09:17:11.673Z,29.72
2023-06-26T09:18:19.393Z,29.71
2023-06-26T09:19:21.197Z,29.65
2023-06-26T09:20:22.930Z,29.53
2023-06-26T09:21:25.720Z,29.40
2023-06-26T09:22:27.828Z,29.35
2023-06-26T09:23:29.643Z,29.26
2023-06-26T09:24:32.635Z,29.12
2023-06-26T09:25:35.010Z,29.10
2023-06-26T09:26:41.139Z,29.15
2023-06-26T09:27:45.117Z,29.20
2023-06-26T09:28:47.815Z,29.30
2023-06-26T09:29:49.936Z,29.32
2023-06-26T09:30:53.459Z,29.21
2023-06-26T09:31:57.277Z,29.21
2023-06-26T09:32:59.451Z,29.06
2023-06-26T09:34:01.996Z,29.18
2023-06-26T09:35:05.278Z,29.28
2023-06-26T09:36:08.317Z,29.26
2023-06-26T09:37:13.360Z,29.30
2023-06-26T09:38:16.083Z,29.37
2023-06-26T09:39:17.847Z,29.49
2023-06-26T09:40:19.790Z,29.61
2023-06-26T09:41:22.077Z,29.72
2023-06-26T09:42:24.964Z,29.88
2023-06-26T09:43:27.214Z,29.99
2023-06-26T09:44:32.277Z,30.08
2023-06-26T09:45:34.984Z,29.76
2023-06-26T09:46:36.984Z,29.74
2023-06-26T09:47:38.986Z,29.69
2023-06-26T09:48:41.970Z,29.87
2023-06-26T09:49:44.275Z,29.96
2023-06-26T09:51:01.244Z,30.08
2023-06-26T09:52:10.978Z,30.33
2023-06-26T09:53:16.577Z,30.45
2023-06-26T09:54:21.273Z,30.49
2023-06-26T09:55:23.883Z,30.34
2023-06-26T09:56:26.064Z,30.17
2023-06-26T09:57:28.634Z,29.81
2023-06-26T09:58:30.993Z,29.51
2023-06-26T09:59:32.787Z,29.27
2023-06-26T10:00:34.748Z,29.06
2023-06-26T10:01:43.401Z,28.87
2023-06-26T10:02:45.674Z,28.26
2023-06-26T10:03:47.684Z,28.15
2023-06-26T10:04:49.436Z,27.98
2023-06-26T10:05:51.765Z,27.91
2023-06-26T10:06:57.226Z,27.89
2023-06-26T10:08:00.226Z,27.74
2023-06-26T10:09:06.484Z,27.73
2023-06-26T10:10:09.983Z,27.68
2023-06-26T10:11:17.358Z,27.62
2023-06-26T10:12:25.908Z,27.58
2023-06-26T10:13:36.176Z,27.47
2023-06-26T10:14:45.644Z,27.18
2023-06-26T10:15:51.399Z,27.25
2023-06-26T10:16:53.839Z,27.25
2023-06-26T10:17:58.391Z,27.08
2023-06-26T10:19:07.938Z,26.97
2023-06-26T10:20:13.486Z,26.91
2023-06-26T10:21:16.168Z,26.77
2023-06-26T10:22:19.183Z,26.81
2023-06-26T10:23:21.825Z,26.84
2023-06-26T10:24:32.654Z,26.88
2023-06-26T10:25:42.038Z,26.88
2023-06-26T10:26:46.857Z,26.83
2023-06-26T10:27:58.615Z,26.84
2023-06-26T10:29:01.281Z,26.87
2023-06-26T10:30:07.989Z,26.81
2023-06-26T10:31:12.759Z,26.73
2023-06-26T10:32:15.282Z,26.69
2023-06-26T10:33:17.917Z,26.80
2023-06-26T10:34:21.876Z,26.88
2023-06-26T10:35:25.717Z,26.88
2023-06-26T10:36:32.952Z,26.97
2023-06-26T10:37:49.563Z,26.93
2023-06-26T10:38:58.963Z,27.00
2023-06-26T10:40:01.645Z,26.95
2023-06-26T10:41:13.183Z,27.02
2023-06-26T10:42:17.477Z,27.11
2023-06-26T10:43:19.938Z,27.10
2023-06-26T10:44:22.290Z,27.14
2023-06-26T10:45:29.231Z,27.13
2023-06-26T10:46:34.840Z,27.19
2023-06-26T10:47:38.352Z,27.24
2023-06-26T10:49:02.949Z,27.42
2023-06-26T10:50:34.338Z,27.74
2023-06-26T10:51:37.367Z,27.95
2023-06-26T10:52:39.341Z,28.00
2023-06-26T10:53:41.513Z,28.14
2023-06-26T10:54:43.821Z,28.20
2023-06-26T10:55:51.656Z,28.28
2023-06-26T10:56:57.843Z,28.45
2023-06-26T10:57:59.696Z,28.85
2023-06-26T10:59:14.929Z,29.19
2023-06-26T11:00:18.658Z,29.55
2023-06-26T11:01:25.338Z,29.65
2023-06-26T11:02:28.936Z,29.49
2023-06-26T11:03:32.460Z,29.53
2023-06-26T11:04:49.133Z,29.53
2023-06-26T11:06:11.556Z,29.79
2023-06-26T11:07:21.927Z,29.95
2023-06-26T11:08:55.163Z,30.22
2023-06-26T11:10:02.547Z,30.50
2023-06-26T11:11:04.267Z,30.79
2023-06-26T11:12:06.461Z,31.03
2023-06-26T11:13:08.390Z,31.24
2023-06-26T11:14:10.657Z,31.49
2023-06-26T11:15:17.115Z,31.78
2023-06-26T11:16:18.873Z,31.91
2023-06-26T11:17:20.828Z,31.82
2023-06-26T11:18:22.675Z,32.15
2023-06-26T11:19:27.603Z,32.51
2023-06-26T11:20:29.293Z,32.79
2023-06-26T11:21:31.522Z,32.94
2023-06-26T11:22:37.610Z,33.07
2023-06-26T11:23:40.454Z,33.09
2023-06-26T11:24:44.341Z,33.30
2023-06-26T11:25:46.117Z,33.44
2023-06-26T11:26:48.116Z,33.64
2023-06-26T11:27:50.808Z,33.85
2023-06-26T11:28:56.184Z,33.91
2023-06-26T11:29:57.885Z,33.97
2023-06-26T11:30:59.862Z,33.90
2023-06-26T11:32:05.647Z,33.79
2023-06-26T11:33:10.136Z,33.79
2023-06-26T11:34:14.167Z,33.97
2023-06-26T11:35:31.284Z,34.08
2023-06-26T11:36:33.657Z,34.20
2023-06-26T11:37:35.538Z,34.32
2023-06-26T11:38:40.108Z,34.31
2023-06-26T11:39:41.818Z,34.36
2023-06-26T11:40:43.757Z,34.39
2023-06-26T11:41:49.089Z,34.40
2023-06-26T11:42:50.876Z,34.38
2023-06-26T11:43:53.860Z,34.31
2023-06-26T11:44:56.261Z,34.24
2023-06-26T11:45:58.093Z,34.20
2023-06-26T11:47:03.037Z,34.17
2023-06-26T11:48:05.090Z,34.01
2023-06-26T11:49:08.105Z,34.07
2023-06-26T11:50:17.547Z,34.01
2023-06-26T11:51:19.517Z,33.98
2023-06-26T11:52:21.260Z,33.95
2023-06-26T11:53:22.971Z,33.88
2023-06-26T11:54:26.514Z,33.79
2023-06-26T11:55:28.259Z,33.77
2023-06-26T11:56:30.304Z,33.75
2023-06-26T11:57:32.988Z,33.73
2023-06-26T11:58:34.676Z,33.70
2023-06-26T11:59:38.070Z,33.71
2023-06-26T12:00:44.264Z,33.65
2023-06-26T12:01:46.613Z,33.64
2023-06-26T12:02:48.882Z,33.50
2023-06-26T12:03:52.091Z,33.35
2023-06-26T12:04:54.070Z,33.29
2023-06-26T12:05:56.510Z,33.30
2023-06-26T12:06:58.719Z,33.32
2023-06-26T12:08:01.079Z,33.27
2023-06-26T12:09:06.354Z,33.09
2023-06-26T12:10:08.708Z,32.95
2023-06-26T12:11:11.341Z,32.84
2023-06-26T12:12:16.059Z,32.68
2023-06-26T12:13:17.872Z,32.58
2023-06-26T12:14:22.970Z,32.26
2023-06-26T12:15:24.774Z,32.05
2023-06-26T12:16:26.803Z,31.91
2023-06-26T12:17:28.691Z,31.77
2023-06-26T12:18:37.158Z,31.62
2023-06-26T12:19:49.545Z,31.38
2023-06-26T12:20:51.253Z,31.12
2023-06-26T12:21:53.548Z,30.91
2023-06-26T12:22:55.240Z,30.75
2023-06-26T12:24:03.056Z,30.60
2023-06-26T12:25:08.680Z,30.50
2023-06-26T12:26:23.019Z,30.23
2023-06-26T12:27:24.844Z,30.15
2023-06-26T12:28:26.859Z,29.92
2023-06-26T12:29:36.703Z,29.57
2023-06-26T12:30:38.829Z,29.00
2023-06-26T12:31:43.138Z,28.57
2023-06-26T12:32:49.054Z,28.55
2023-06-26T12:33:53.980Z,28.00
2023-06-26T12:34:58.129Z,27.78
2023-06-26T12:35:59.884Z,27.78
2023-06-26T12:37:19.859Z,27.04
2023-06-26T12:38:22.878Z,26.84
2023-06-26T12:39:25.862Z,26.91
2023-06-26T12:40:27.672Z,26.70
2023-06-26T12:41:29.388Z,26.41
2023-06-26T12:42:34.587Z,26.28
2023-06-26T12:43:39.994Z,25.86
2023-06-26T12:44:41.745Z,26.21
2023-06-26T12:45:43.528Z,26.21
2023-06-26T12:46:47.625Z,26.30
2023-06-26T12:47:49.986Z,26.35
2023-06-26T12:48:55.976Z,26.50
2023-06-26T12:49:58.969Z,26.58
2023-06-26T12:51:01.038Z,26.62
2023-06-26T12:52:05.283Z,26.66
2023-06-26T12:53:07.079Z,26.73
2023-06-26T12:54:11.978Z,26.76
2023-06-26T12:55:13.748Z,27.08
2023-06-26T12:56:17.323Z,27.27
2023-06-26T12:57:19.177Z,27.32
2023-06-26T12:58:21.065Z,27.35
2023-06-26T12:59:23.418Z,27.52
2023-06-26T13:00:26.623Z,27.61
2023-06-26T13:01:29.370Z,27.89
2023-06-26T13:02:31.473Z,27.94
2023-06-26T13:03:34.818Z,28.19
2023-06-26T13:04:37.258Z,28.41
2023-06-26T13:05:39.016Z,28.72
2023-06-26T13:06:40.795Z,28.96
2023-06-26T13:07:42.547Z,29.15
2023-06-26T13:08:44.726Z,29.31
2023-06-26T13:09:47.354Z,29.43
2023-06-26T13:10:49.300Z,29.36
2023-06-26T13:11:51.115Z,29.03
2023-06-26T13:12:52.819Z,28.59
2023-06-26T13:14:09.163Z,28.34
2023-06-26T13:15:12.707Z,28.00
2023-06-26T13:16:14.748Z,28.17
2023-06-26T13:17:16.505Z,28.15
2023-06-26T13:18:18.288Z,27.83
2023-06-26T13:19:20.036Z,27.81
2023-06-26T13:20:21.838Z,27.82
2023-06-26T13:21:23.850Z,27.86
2023-06-26T13:22:25.612Z,27.67
2023-06-26T13:23:27.392Z,27.56
2023-06-26T13:24:29.207Z,27.39
2023-06-26T13:25:31.246Z,27.34
2023-06-26T13:26:37.877Z,27.23
2023-06-26T13:27:40.121Z,27.20
2023-06-26T13:28:43.026Z,27.09
2023-06-26T13:29:44.813Z,27.01
2023-06-26T13:30:46.599Z,26.99
2023-06-26T13:31:48.417Z,27.00
2023-06-26T13:32:50.211Z,27.07
2023-06-26T13:33:54.668Z,27.12
2023-06-26T13:34:56.499Z,27.20
2023-06-26T13:35:58.449Z,27.17